Time;durP1;ratioP1;P1;durP2;ratioP2;P2;SDS_P1;SDS_P2;PMS_P1;PMS_P2;Temp;Humidity;BMP_temperature;BMP_pressure;BME280_temperature;BME280_humidity;BME280_pressure;Samples;Min_cycle;Max_cycle;Signal;HPM_P1;HPM_P2
2022/05/15 00:00:41;;;;;;;2.80;1.50;;;20.50;64.90;;;;;;5099851;27;45609;-78
2022/05/15 00:03:13;;;;;;;1.83;1.38;;;20.50;64.90;;;;;;5105901;27;45439;-79
2022/05/15 00:05:40;;;;;;;2.40;1.48;;;20.50;65.00;;;;;;5110221;27;45156;-79
2022/05/15 00:08:09;;;;;;;2.78;1.77;;;20.50;65.00;;;;;;5108507;27;45101;-78
2022/05/15 00:10:36;;;;;;;2.38;1.40;;;20.50;64.90;;;;;;5105691;27;45325;-79
2022/05/15 00:13:06;;;;;;;2.42;1.83;;;20.60;65.00;;;;;;5107436;27;45303;-79
2022/05/15 00:15:34;;;;;;;1.80;1.45;;;20.60;64.90;;;;;;5106016;27;46838;-79
2022/05/15 00:18:01;;;;;;;3.92;1.98;;;20.60;64.80;;;;;;5107085;27;45411;-79
2022/05/15 00:20:28;;;;;;;3.50;1.80;;;20.50;64.80;;;;;;5108493;27;45564;-79
2022/05/15 00:22:55;;;;;;;2.03;1.33;;;20.50;64.80;;;;;;5106921;27;45419;-79
2022/05/15 00:25:22;;;;;;;2.03;1.58;;;20.50;64.70;;;;;;5106376;27;45165;-79
2022/05/15 00:27:49;;;;;;;2.45;1.58;;;20.60;64.70;;;;;;5107078;27;45169;-78
2022/05/15 00:30:20;;;;;;;2.05;1.50;;;20.60;64.70;;;;;;5104696;27;47073;-78
2022/05/15 00:32:48;;;;;;;3.35;1.42;;;20.60;64.70;;;;;;5103212;27;45175;-79
2022/05/15 00:35:15;;;;;;;2.42;1.30;;;20.50;64.70;;;;;;5095492;27;45338;-79
2022/05/15 00:37:41;;;;;;;2.85;1.75;;;20.50;64.60;;;;;;5106240;27;45317;-79
2022/05/15 00:40:10;;;;;;;3.90;1.60;;;20.50;64.70;;;;;;5107402;27;46148;-79
2022/05/15 00:42:37;;;;;;;3.85;1.63;;;20.50;64.70;;;;;;5104524;27;45716;-79
2022/05/15 00:45:06;;;;;;;2.83;1.63;;;20.50;64.70;;;;;;5106925;27;45349;-79
2022/05/15 00:47:35;;;;;;;2.88;1.67;;;20.50;64.70;;;;;;5106112;27;46329;-79
2022/05/15 00:50:05;;;;;;;4.05;1.88;;;20.50;64.70;;;;;;5106092;27;47086;-79
2022/05/15 00:52:35;;;;;;;3.20;1.70;;;20.50;64.70;;;;;;5101124;27;45192;-79
2022/05/15 00:55:07;;;;;;;3.35;1.80;;;20.50;64.60;;;;;;5105126;27;45582;-79
2022/05/15 00:57:38;;;;;;;2.30;1.65;;;20.50;64.50;;;;;;5104079;27;45235;-78
2022/05/15 01:00:09;;;;;;;2.08;1.35;;;20.50;64.80;;;;;;5104838;27;47387;-79
2022/05/15 01:02:41;;;;;;;3.00;1.30;;;20.50;64.70;;;;;;5105172;27;45219;-78
2022/05/15 01:05:10;;;;;;;3.15;1.77;;;20.50;64.50;;;;;;5105760;27;45341;-79
2022/05/15 01:07:37;;;;;;;2.60;1.63;;;20.50;64.50;;;;;;5110720;27;45175;-79
2022/05/15 01:10:06;;;;;;;4.00;1.63;;;20.60;64.50;;;;;;5105034;27;46308;-79
2022/05/15 01:12:34;;;;;;;2.47;1.52;;;20.50;64.40;;;;;;5106838;27;45357;-79
2022/05/15 01:15:01;;;;;;;3.45;2.08;;;20.50;64.40;;;;;;5111915;27;45259;-79
2022/05/15 01:17:28;;;;;;;3.20;1.77;;;20.50;64.30;;;;;;5104102;27;45358;-79
2022/05/15 01:20:04;;;;;;;4.60;1.90;;;20.50;64.30;;;;;;5102456;27;45572;-79
2022/05/15 01:22:32;;;;;;;3.05;1.70;;;20.50;64.40;;;;;;5105069;27;46327;-79
2022/05/15 01:24:59;;;;;;;3.30;1.85;;;20.50;64.40;;;;;;5106131;27;45234;-79
2022/05/15 01:27:26;;;;;;;3.08;1.65;;;20.50;64.40;;;;;;5104098;27;45338;-79
2022/05/15 01:29:53;;;;;;;2.42;1.77;;;20.50;64.50;;;;;;5099504;27;45977;-79
2022/05/15 01:32:20;;;;;;;1.83;1.50;;;20.50;64.40;;;;;;5100369;27;45500;-79
2022/05/15 01:34:47;;;;;;;3.25;1.77;;;20.50;64.40;;;;;;5104888;27;45427;-78
2022/05/15 01:37:13;;;;;;;2.10;1.70;;;20.50;64.50;;;;;;5112130;27;45350;-79
2022/05/15 01:39:42;;;;;;;5.18;1.85;;;20.50;64.50;;;;;;5106104;27;47147;-79
2022/05/15 01:42:09;;;;;;;3.83;2.10;;;20.50;64.40;;;;;;5103518;27;45294;-79
2022/05/15 01:44:36;;;;;;;2.75;1.63;;;20.50;64.40;;;;;;5104068;27;45306;-79
2022/05/15 01:47:03;;;;;;;2.08;1.58;;;20.50;64.40;;;;;;5106610;27;45638;-79
2022/05/15 01:49:30;;;;;;;2.63;1.60;;;20.50;64.40;;;;;;5104956;27;46200;-78
2022/05/15 01:51:57;;;;;;;3.00;1.70;;;20.50;64.40;;;;;;5106309;27;45209;-79
2022/05/15 01:54:24;;;;;;;2.63;1.73;;;20.50;64.60;;;;;;5103558;27;45462;-78
2022/05/15 01:56:52;;;;;;;2.92;1.60;;;20.50;64.50;;;;;;5107253;27;45218;-79
2022/05/15 01:59:18;;;;;;;2.13;1.50;;;20.50;64.40;;;;;;5104444;27;46242;-79
2022/05/15 02:01:45;;;;;;;2.55;1.70;;;20.50;64.30;;;;;;5106794;27;45194;-79
2022/05/15 02:04:12;;;;;;;2.03;1.60;;;20.50;64.30;;;;;;5109047;27;46134;-79
2022/05/15 02:06:40;;;;;;;2.15;1.65;;;20.50;64.20;;;;;;5117346;27;45572;-79
2022/05/15 02:09:07;;;;;;;2.97;1.70;;;20.50;64.20;;;;;;5119728;27;47701;-79
2022/05/15 02:11:34;;;;;;;3.08;1.77;;;20.60;64.10;;;;;;5110099;27;45703;-79
2022/05/15 02:14:03;;;;;;;3.15;1.67;;;20.60;64.20;;;;;;5108979;27;45301;-79
2022/05/15 02:16:31;;;;;;;2.10;1.48;;;20.60;64.10;;;;;;5108996;27;45438;-78
2022/05/15 02:18:58;;;;;;;2.88;1.80;;;20.50;64.20;;;;;;5108144;27;46494;-79
2022/05/15 02:21:25;;;;;;;2.90;1.95;;;20.60;64.10;;;;;;5107989;27;45703;-79
2022/05/15 02:23:51;;;;;;;2.33;1.50;;;20.60;64.20;;;;;;5108614;27;45357;-79
2022/05/15 02:26:18;;;;;;;2.85;1.50;;;20.50;64.20;;;;;;5109111;27;45460;-79
2022/05/15 02:28:45;;;;;;;3.97;1.67;;;20.60;64.20;;;;;;5111666;27;48549;-79
2022/05/15 02:31:14;;;;;;;2.80;1.70;;;20.50;64.20;;;;;;5108042;27;45321;-79
2022/05/15 02:33:41;;;;;;;2.90;1.70;;;20.50;64.20;;;;;;5107843;27;45310;-79
2022/05/15 02:36:08;;;;;;;2.40;1.77;;;20.50;64.20;;;;;;5109606;27;45238;-79
2022/05/15 02:38:36;;;;;;;2.65;1.85;;;20.60;64.20;;;;;;5114565;27;45659;-79
2022/05/15 02:41:03;;;;;;;2.65;1.60;;;20.60;64.20;;;;;;5107539;27;45303;-79
2022/05/15 02:43:30;;;;;;;3.60;1.85;;;20.60;64.30;;;;;;5108159;27;45384;-79
2022/05/15 02:45:57;;;;;;;2.25;1.50;;;20.60;64.20;;;;;;5109499;27;45209;-79
2022/05/15 02:51:10;;;;;;;1.88;1.40;;;20.60;64.30;;;;;;5106423;27;45140;-79
2022/05/15 02:53:39;;;;;;;4.28;1.77;;;20.60;64.30;;;;;;5108358;27;45244;-79
2022/05/15 02:56:09;;;;;;;3.03;1.65;;;20.60;64.30;;;;;;5107547;27;45645;-79
2022/05/15 02:58:36;;;;;;;2.05;1.48;;;20.60;64.30;;;;;;5106964;27;46183;-79
2022/05/15 03:01:03;;;;;;;3.50;1.70;;;20.60;64.20;;;;;;5106999;27;45608;-79
2022/05/15 03:03:32;;;;;;;2.53;1.52;;;20.60;64.20;;;;;;5108960;27;45179;-79
2022/05/15 03:05:59;;;;;;;3.95;1.67;;;20.60;64.10;;;;;;5109310;27;45508;-79
2022/05/15 03:08:26;;;;;;;3.13;1.80;;;20.60;64.10;;;;;;5106520;27;45349;-78
2022/05/15 03:10:53;;;;;;;2.50;1.60;;;20.60;64.10;;;;;;5108099;27;45204;-79
2022/05/15 03:13:20;;;;;;;2.78;1.90;;;20.60;64.00;;;;;;5107829;27;45294;-79
2022/05/15 03:15:47;;;;;;;2.85;1.90;;;20.60;64.00;;;;;;5113200;27;45144;-79
2022/05/15 03:18:14;;;;;;;3.30;1.58;;;20.60;64.10;;;;;;5106281;27;45979;-79
2022/05/15 03:20:42;;;;;;;3.53;1.90;;;20.60;64.00;;;;;;5107150;27;45365;-79
2022/05/15 03:23:09;;;;;;;2.80;1.50;;;20.60;64.00;;;;;;5105674;27;45449;-79
2022/05/15 03:25:35;;;;;;;2.28;1.88;;;20.60;64.10;;;;;;5101436;27;45152;-78
2022/05/15 03:28:04;;;;;;;3.10;1.70;;;20.50;64.00;;;;;;5107801;27;46162;-79
2022/05/15 03:30:31;;;;;;;2.13;1.65;;;20.50;64.10;;;;;;5101244;27;45214;-79
2022/05/15 03:32:58;;;;;;;2.15;1.60;;;20.60;64.10;;;;;;5103974;27;45283;-79
2022/05/15 03:35:24;;;;;;;2.40;1.58;;;20.60;64.10;;;;;;5111905;27;45197;-79
2022/05/15 03:37:52;;;;;;;2.25;1.63;;;20.50;64.00;;;;;;5105704;27;45251;-79
2022/05/15 03:40:19;;;;;;;2.65;1.50;;;20.50;64.00;;;;;;5097937;27;45147;-79
2022/05/15 03:42:46;;;;;;;3.58;1.92;;;20.50;63.90;;;;;;5107388;27;45328;-79
2022/05/15 03:45:13;;;;;;;1.65;1.40;;;20.50;64.00;;;;;;5107933;27;45512;-79
2022/05/15 03:47:46;;;;;;;2.75;1.67;;;20.50;64.00;;;;;;5106852;27;47178;-79
2022/05/15 03:50:13;;;;;;;1.85;1.52;;;20.60;64.00;;;;;;5106361;27;45704;-79
2022/05/15 03:52:40;;;;;;;2.40;1.70;;;20.60;64.00;;;;;;5104998;27;45899;-79
2022/05/15 03:55:10;;;;;;;2.47;1.67;;;20.60;64.00;;;;;;5106925;27;45267;-79
2022/05/15 03:57:37;;;;;;;4.57;1.80;;;20.50;63.80;;;;;;5104298;27;45373;-79
2022/05/15 04:00:06;;;;;;;2.00;1.80;;;20.60;64.00;;;;;;5105320;27;45360;-79
2022/05/15 04:02:33;;;;;;;1.77;1.40;;;20.50;63.80;;;;;;5100633;27;45202;-79
2022/05/15 04:04:59;;;;;;;1.52;1.35;;;20.60;63.80;;;;;;5107401;27;45202;-79
2022/05/15 04:07:26;;;;;;;1.45;1.30;;;20.60;63.70;;;;;;5112501;27;45382;-79
2022/05/15 04:09:53;;;;;;;3.38;1.73;;;20.60;63.80;;;;;;5107716;27;45332;-79
2022/05/15 04:12:21;;;;;;;2.85;1.58;;;20.60;63.80;;;;;;5104714;27;45246;-79
2022/05/15 04:14:48;;;;;;;2.95;1.83;;;20.60;63.80;;;;;;5104304;27;46460;-79
2022/05/15 04:17:15;;;;;;;2.95;1.50;;;20.60;63.80;;;;;;5108287;27;46318;-79
2022/05/15 04:19:42;;;;;;;2.47;1.48;;;20.50;63.80;;;;;;5107045;27;45223;-79
2022/05/15 04:22:09;;;;;;;1.80;1.48;;;20.50;63.90;;;;;;5104002;27;45140;-79
2022/05/15 04:24:36;;;;;;;2.35;1.40;;;20.50;63.80;;;;;;5103311;27;45756;-78
2022/05/15 04:27:04;;;;;;;3.90;1.70;;;20.50;63.80;;;;;;5107757;27;46548;-79
2022/05/15 04:29:32;;;;;;;3.22;1.65;;;20.50;63.80;;;;;;5106951;27;45218;-79
2022/05/15 04:31:59;;;;;;;2.67;1.52;;;20.50;63.80;;;;;;5104704;27;45337;-79
2022/05/15 04:34:28;;;;;;;3.05;1.58;;;20.50;63.80;;;;;;5104857;27;45244;-78
2022/05/15 04:36:55;;;;;;;2.90;1.80;;;20.50;63.70;;;;;;5107405;27;46202;-79
2022/05/15 04:39:23;;;;;;;2.08;1.63;;;20.60;63.80;;;;;;5106652;27;45193;-79
2022/05/15 04:41:50;;;;;;;3.63;1.90;;;20.60;64.90;;;;;;5104163;27;45540;-79
2022/05/15 04:44:16;;;;;;;2.40;1.70;;;20.60;63.60;;;;;;5104074;27;45243;-79
2022/05/15 04:46:46;;;;;;;3.20;1.90;;;20.60;63.50;;;;;;5107533;27;45238;-79
2022/05/15 04:49:13;;;;;;;2.50;1.77;;;20.60;63.50;;;;;;5104506;27;45488;-79
2022/05/15 04:51:40;;;;;;;3.42;1.80;;;20.60;63.50;;;;;;5106526;27;45239;-78
2022/05/15 04:54:07;;;;;;;3.75;1.60;;;20.60;63.50;;;;;;5102702;27;45456;-79
2022/05/15 04:56:34;;;;;;;2.70;1.83;;;20.60;63.50;;;;;;5104682;27;46626;-79
2022/05/15 04:59:01;;;;;;;2.00;1.60;;;20.60;63.50;;;;;;5107065;27;45178;-79
2022/05/15 05:01:28;;;;;;;4.03;1.80;;;20.60;63.50;;;;;;5104513;27;45551;-79
2022/05/15 05:03:57;;;;;;;4.20;1.90;;;20.60;63.60;;;;;;5107849;27;45918;-79
2022/05/15 05:06:24;;;;;;;1.95;1.50;;;20.60;63.50;;;;;;5109855;27;45271;-79
2022/05/15 05:08:51;;;;;;;2.22;1.55;;;20.60;63.60;;;;;;5103320;27;45323;-79
2022/05/15 05:11:18;;;;;;;2.22;1.50;;;20.60;63.60;;;;;;5103939;27;46261;-79
2022/05/15 05:13:45;;;;;;;2.30;1.60;;;20.60;63.70;;;;;;5108692;27;45710;-79
2022/05/15 05:16:12;;;;;;;3.35;1.70;;;20.60;63.70;;;;;;5104618;27;45206;-79
2022/05/15 05:18:40;;;;;;;4.60;2.10;;;20.60;63.70;;;;;;5106375;27;45162;-79
2022/05/15 05:21:08;;;;;;;2.60;1.60;;;20.60;63.80;;;;;;5103992;27;45219;-79
2022/05/15 05:23:35;;;;;;;3.20;1.58;;;20.60;63.90;;;;;;5101123;27;46736;-79
2022/05/15 05:26:03;;;;;;;2.42;1.90;;;20.60;63.90;;;;;;5097393;27;45360;-79
2022/05/15 05:28:30;;;;;;;2.70;1.50;;;20.50;63.90;;;;;;5104133;27;45389;-79
2022/05/15 05:30:58;;;;;;;2.45;1.73;;;20.60;64.00;;;;;;5099398;27;45255;-79
2022/05/15 05:33:26;;;;;;;2.35;1.73;;;20.60;64.20;;;;;;5098273;27;45203;-79
2022/05/15 05:35:53;;;;;;;2.33;1.80;;;20.50;64.00;;;;;;5104488;27;47063;-79
2022/05/15 05:38:22;;;;;;;2.57;1.93;;;20.60;64.10;;;;;;5100952;27;45132;-79
2022/05/15 05:40:49;;;;;;;2.78;1.90;;;20.60;64.00;;;;;;5108747;27;45236;-79
2022/05/15 05:43:15;;;;;;;2.20;1.60;;;20.60;64.00;;;;;;5108252;27;45349;-79
2022/05/15 05:45:42;;;;;;;2.40;1.70;;;20.60;64.00;;;;;;5108126;27;46556;-79
2022/05/15 05:48:10;;;;;;;2.75;1.98;;;20.60;64.10;;;;;;5107448;27;46240;-79
2022/05/15 05:50:37;;;;;;;2.70;1.70;;;20.60;64.00;;;;;;5106973;27;45348;-79
2022/05/15 05:53:04;;;;;;;3.30;1.80;;;20.60;64.00;;;;;;5107260;27;45257;-79
2022/05/15 05:55:32;;;;;;;2.70;1.60;;;20.60;64.00;;;;;;5109173;27;47413;-79
2022/05/15 05:57:59;;;;;;;4.68;2.10;;;20.60;64.00;;;;;;5102090;27;46077;-78
2022/05/15 06:00:29;;;;;;;2.17;1.50;;;20.60;64.10;;;;;;5107711;27;45491;-78
2022/05/15 06:04:39;;;;;;;2.60;1.60;;;20.60;64.00;;;;;;5114108;27;45328;-78
2022/05/15 06:05:43;;;;;;;3.33;1.90;;;20.60;64.10;;;;;;5113433;27;45227;-79
2022/05/15 06:08:10;;;;;;;3.80;1.70;;;20.60;64.10;;;;;;5113565;27;46382;-79
2022/05/15 06:10:39;;;;;;;2.22;1.35;;;20.60;64.20;;;;;;5113912;27;45438;-79
2022/05/15 06:13:06;;;;;;;2.75;1.38;;;20.60;64.10;;;;;;5108257;27;45307;-79
2022/05/15 06:15:33;;;;;;;4.88;2.05;;;20.60;64.20;;;;;;5101950;27;46599;-81
2022/05/15 06:18:02;;;;;;;2.72;1.70;;;20.60;64.30;;;;;;5102278;27;45425;-79
2022/05/15 06:20:29;;;;;;;2.75;1.65;;;20.60;64.40;;;;;;5106692;27;45180;-79
2022/05/15 06:22:56;;;;;;;2.33;1.55;;;20.60;64.40;;;;;;5108447;27;46725;-80
2022/05/15 06:25:24;;;;;;;2.65;1.80;;;20.60;64.40;;;;;;5105350;27;46341;-79
2022/05/15 06:27:52;;;;;;;2.45;1.65;;;20.60;64.40;;;;;;5105255;27;46672;-79
2022/05/15 06:30:20;;;;;;;2.55;1.80;;;20.60;64.40;;;;;;5105728;27;45663;-79
2022/05/15 06:32:47;;;;;;;3.05;1.70;;;20.60;64.40;;;;;;5105518;27;45129;-80
2022/05/15 06:35:15;;;;;;;3.47;1.58;;;20.60;64.40;;;;;;5108157;27;46605;-79
2022/05/15 06:37:42;;;;;;;16.13;5.43;;;20.60;64.40;;;;;;5110232;27;45351;-83
2022/05/15 06:40:13;;;;;;;11.10;4.72;;;18.80;69.10;;;;;;5107916;27;45322;-89
2022/05/15 06:42:41;;;;;;;9.25;5.00;;;16.90;76.70;;;;;;5109378;27;45435;-82
2022/05/15 06:45:11;;;;;;;12.98;4.72;;;16.70;78.50;;;;;;5105167;27;47132;-83
2022/05/15 06:47:38;;;;;;;14.60;4.93;;;16.50;79.40;;;;;;5101622;27;45548;-82
2022/05/15 06:50:07;;;;;;;5.95;2.80;;;16.90;79.90;;;;;;5104646;27;45432;-82
2022/05/15 06:52:35;;;;;;;7.57;3.00;;;18.20;76.30;;;;;;5105345;27;45215;-81
2022/05/15 06:55:03;;;;;;;4.70;2.33;;;18.90;72.50;;;;;;5110313;27;48389;-81
2022/05/15 06:57:29;;;;;;;6.55;2.60;;;19.10;71.20;;;;;;5107331;27;45647;-82
2022/05/15 06:59:56;;;;;;;6.65;2.63;;;19.40;69.40;;;;;;5108328;27;45213;-83
2022/05/15 07:02:26;;;;;;;5.40;2.28;;;19.60;68.50;;;;;;5108907;27;45450;-83
2022/05/15 07:04:53;;;;;;;15.10;3.40;;;19.60;67.30;;;;;;5105019;27;46494;-80
2022/05/15 07:07:20;;;;;;;9.60;3.20;;;19.30;70.70;;;;;;5102194;27;45541;-80
2022/05/15 07:09:47;;;;;;;5.32;2.30;;;19.70;67.50;;;;;;5107766;27;45353;-81
2022/05/15 07:12:14;;;;;;;7.03;2.15;;;20.00;66.60;;;;;;5107897;27;45388;-80
2022/05/15 07:14:41;;;;;;;4.05;2.17;;;20.20;65.90;;;;;;5103685;27;45340;-81
2022/05/15 07:17:08;;;;;;;4.40;2.42;;;20.30;65.70;;;;;;5102127;27;45307;-80
2022/05/15 07:19:36;;;;;;;4.53;2.28;;;20.40;65.60;;;;;;5108309;27;45500;-80
2022/05/15 07:22:03;;;;;;;5.40;2.22;;;20.40;65.40;;;;;;5106644;27;45235;-80
2022/05/15 07:24:30;;;;;;;6.18;2.15;;;20.50;65.60;;;;;;5107820;27;46993;-80
2022/05/15 07:26:57;;;;;;;3.20;2.00;;;20.50;65.20;;;;;;5107485;27;45338;-80
2022/05/15 07:29:25;;;;;;;3.70;1.95;;;20.50;65.20;;;;;;5102587;27;45480;-80
2022/05/15 07:31:53;;;;;;;4.47;1.90;;;20.50;64.90;;;;;;5104668;27;45491;-80
2022/05/15 07:34:21;;;;;;;4.53;2.13;;;20.50;64.70;;;;;;5103319;27;47407;-80
2022/05/15 07:36:52;;;;;;;3.55;1.95;;;20.50;64.70;;;;;;5102318;27;45346;-80
2022/05/15 07:39:20;;;;;;;3.70;1.80;;;20.50;64.60;;;;;;5097407;27;45414;-80
2022/05/15 07:41:48;;;;;;;4.20;1.85;;;20.60;64.50;;;;;;5103959;27;45401;-80
2022/05/15 07:44:15;;;;;;;2.55;1.55;;;20.60;64.50;;;;;;5108552;27;47211;-80
2022/05/15 07:46:42;;;;;;;2.70;1.80;;;20.60;64.50;;;;;;5105797;27;45192;-80
2022/05/15 07:49:08;;;;;;;3.60;1.80;;;20.60;64.50;;;;;;5103037;27;45238;-80
2022/05/15 07:51:37;;;;;;;5.25;1.92;;;20.60;64.60;;;;;;5101691;27;45306;-80
2022/05/15 07:54:05;;;;;;;4.80;2.00;;;20.60;64.50;;;;;;5110011;27;45537;-80
2022/05/15 07:56:32;;;;;;;3.67;2.05;;;20.60;64.60;;;;;;5107275;27;45254;-79
2022/05/15 07:58:58;;;;;;;3.33;1.83;;;20.60;64.90;;;;;;5108277;27;45217;-80
2022/05/15 08:01:25;;;;;;;5.25;1.90;;;20.60;65.10;;;;;;5106867;27;45487;-79
2022/05/15 08:03:52;;;;;;;2.50;1.40;;;20.60;65.20;;;;;;5109470;27;46183;-80
2022/05/15 08:09:07;;;;;;;2.33;1.33;;;20.60;65.40;;;;;;5108546;27;45180;-79
2022/05/15 08:11:36;;;;;;;1.85;1.48;;;20.60;65.30;;;;;;5108306;27;45434;-79
2022/05/15 08:14:04;;;;;;;2.88;1.48;;;20.60;65.40;;;;;;5109111;27;46998;-80
2022/05/15 08:16:35;;;;;;;4.00;1.63;;;20.60;65.50;;;;;;5108079;27;45270;-80
2022/05/15 08:24:31;;;;;;;2.60;1.58;;;20.60;65.60;;;;;;5107410;27;45589;-79
2022/05/15 08:26:58;;;;;;;1.98;1.40;;;20.60;65.70;;;;;;5108914;27;45282;-80
2022/05/15 08:29:25;;;;;;;2.85;1.52;;;20.60;65.70;;;;;;5106950;27;45206;-80
2022/05/15 08:31:52;;;;;;;4.10;1.35;;;20.70;65.80;;;;;;5105749;27;45693;-80
2022/05/15 08:34:18;;;;;;;2.35;1.40;;;20.70;65.90;;;;;;5108565;27;45985;-80
2022/05/15 08:36:45;;;;;;;2.15;1.50;;;20.70;66.40;;;;;;5107418;27;45105;-80
2022/05/15 08:39:13;;;;;;;1.98;1.40;;;20.70;65.90;;;;;;5106736;27;45220;-80
2022/05/15 08:41:48;;;;;;;4.45;1.65;;;20.70;66.10;;;;;;5107535;27;45401;-80
2022/05/15 08:44:19;;;;;;;4.07;1.75;;;20.70;66.30;;;;;;5108154;27;47135;-81
2022/05/15 08:47:04;;;;;;;3.03;1.52;;;20.70;66.20;;;;;;5116051;27;45195;-80
2022/05/15 08:49:34;;;;;;;3.47;1.75;;;20.70;66.40;;;;;;5108276;27;45518;-79
2022/05/15 08:52:08;;;;;;;3.20;1.35;;;20.70;66.30;;;;;;5108505;27;45164;-80
2022/05/15 08:54:39;;;;;;;2.47;1.60;;;20.70;66.40;;;;;;5106742;27;47332;-80
2022/05/15 08:57:14;;;;;;;4.32;1.50;;;20.70;66.40;;;;;;5108611;27;45431;-80
2022/05/15 08:59:54;;;;;;;2.50;1.30;;;20.70;66.50;;;;;;5116437;27;45142;-80
2022/05/15 09:02:23;;;;;;;2.58;1.70;;;20.70;66.50;;;;;;5108324;27;45256;-80
2022/05/15 09:04:51;;;;;;;2.53;1.35;;;20.70;66.50;;;;;;5107037;27;45237;-80
2022/05/15 09:07:36;;;;;;;3.03;1.50;;;20.70;66.50;;;;;;5110139;27;45172;-79
2022/05/15 09:10:14;;;;;;;2.17;1.42;;;20.70;66.40;;;;;;5107235;27;45229;-80
2022/05/15 09:12:47;;;;;;;2.40;1.38;;;20.70;66.40;;;;;;5106108;27;45251;-79
2022/05/15 09:15:18;;;;;;;3.25;1.15;;;20.70;66.20;;;;;;5127180;27;45730;-80
2022/05/15 09:17:47;;;;;;;2.38;1.40;;;20.70;66.10;;;;;;5128960;27;45181;-79
2022/05/15 09:20:18;;;;;;;2.40;1.45;;;20.70;66.00;;;;;;5125998;27;45533;-80
2022/05/15 09:22:52;;;;;;;1.58;1.20;;;20.70;66.00;;;;;;5109547;27;45495;-79
2022/05/15 09:25:21;;;;;;;1.88;1.35;;;20.80;66.00;;;;;;5108172;27;47188;-80
2022/05/15 09:28:01;;;;;;;2.10;1.50;;;20.70;65.80;;;;;;5106275;27;45200;-79
2022/05/15 09:30:37;;;;;;;1.95;1.30;;;20.70;65.80;;;;;;5107092;27;45334;-80
2022/05/15 09:33:05;;;;;;;1.95;1.40;;;20.80;65.90;;;;;;5128063;27;45341;-79
2022/05/15 09:35:35;;;;;;;1.55;1.17;;;20.80;65.90;;;;;;5125045;27;45227;-80
2022/05/15 09:43:40;;;;;;;1.77;1.05;;;20.80;65.70;;;;;;5105709;27;45281;-79
2022/05/15 09:46:12;;;;;;;2.53;1.30;;;20.80;65.60;;;;;;5106077;27;46393;-80
2022/05/15 09:48:49;;;;;;;1.48;1.10;;;20.70;65.70;;;;;;5106969;27;45233;-79
2022/05/15 09:51:28;;;;;;;1.90;1.08;;;20.70;65.60;;;;;;5107830;27;45258;-80
2022/05/15 09:53:57;;;;;;;2.00;1.38;;;20.70;65.60;;;;;;5105869;27;45576;-80
2022/05/15 09:56:29;;;;;;;1.52;1.00;;;20.80;65.60;;;;;;5101423;27;45462;-80
2022/05/15 09:59:01;;;;;;;2.10;1.23;;;20.70;65.60;;;;;;5101268;27;45230;-79
2022/05/15 10:01:35;;;;;;;1.48;1.10;;;20.70;65.60;;;;;;5100458;27;45345;-80
2022/05/15 10:04:04;;;;;;;2.70;1.35;;;20.80;65.60;;;;;;5106388;27;45196;-80
2022/05/15 10:06:33;;;;;;;2.72;1.40;;;20.70;65.50;;;;;;5115263;27;46400;-80
2022/05/15 10:09:12;;;;;;;1.77;1.10;;;20.70;65.50;;;;;;5119193;27;45324;-79
2022/05/15 10:11:42;;;;;;;2.38;1.08;;;20.80;65.60;;;;;;5094509;27;45316;-80
2022/05/15 10:14:23;;;;;;;2.28;1.13;;;20.80;65.60;;;;;;5098377;27;45877;-80
2022/05/15 10:16:53;;;;;;;1.73;1.10;;;20.80;65.50;;;;;;5096558;27;48175;-80
2022/05/15 10:19:26;;;;;;;2.20;1.10;;;20.80;65.60;;;;;;5101404;27;45404;-79
2022/05/15 10:22:10;;;;;;;2.00;1.30;;;20.80;65.70;;;;;;5121459;27;45427;-80
2022/05/15 10:24:43;;;;;;;2.17;1.38;;;20.80;65.70;;;;;;5105492;27;45273;-80
2022/05/15 10:27:15;;;;;;;1.88;1.20;;;20.80;65.70;;;;;;5100461;27;48328;-80
2022/05/15 10:29:50;;;;;;;1.73;1.05;;;20.80;65.80;;;;;;5103359;27;46167;-80
2022/05/15 10:32:23;;;;;;;1.73;1.10;;;20.80;65.80;;;;;;5107099;27;46061;-80
2022/05/15 10:34:50;;;;;;;1.58;1.20;;;20.80;65.90;;;;;;5106212;27;45272;-80
2022/05/15 10:37:41;;;;;;;1.98;0.90;;;20.70;65.80;;;;;;5108110;27;45431;-79
2022/05/15 10:40:20;;;;;;;1.65;1.40;;;20.80;66.00;;;;;;5106190;27;45969;-80
2022/05/15 10:42:59;;;;;;;3.22;1.42;;;20.70;65.90;;;;;;5109248;27;45296;-80
2022/05/15 10:45:34;;;;;;;1.35;1.20;;;20.70;66.00;;;;;;5103573;27;46227;-80
2022/05/15 10:48:13;;;;;;;2.75;1.67;;;20.70;66.10;;;;;;5113986;27;45295;-79
2022/05/15 10:50:50;;;;;;;4.25;2.70;;;20.70;66.30;;;;;;5100898;27;45214;-80
2022/05/15 10:59:22;;;;;;;4.28;2.60;;;20.70;66.50;;;;;;5104013;27;45727;-80
2022/05/15 11:02:02;;;;;;;4.65;2.60;;;20.80;66.60;;;;;;5106417;27;45233;-80
2022/05/15 11:04:43;;;;;;;4.28;2.63;;;20.80;66.50;;;;;;5098068;27;45363;-80
2022/05/15 11:07:15;;;;;;;4.80;2.60;;;20.80;66.40;;;;;;5115112;27;45156;-80
2022/05/15 11:10:07;;;;;;;3.03;2.35;;;20.80;66.30;;;;;;5102533;27;46321;-80
2022/05/15 11:12:41;;;;;;;2.78;1.90;;;20.80;66.30;;;;;;5102695;27;45722;-80
2022/05/15 11:15:22;;;;;;;4.30;2.38;;;20.80;66.20;;;;;;5106893;27;45280;-80
2022/05/15 11:17:59;;;;;;;3.60;2.13;;;20.80;66.30;;;;;;5099713;27;45343;-79
2022/05/15 11:20:40;;;;;;;2.95;2.00;;;20.80;66.30;;;;;;5104428;27;48000;-80
2022/05/15 11:23:13;;;;;;;3.83;2.05;;;20.80;66.30;;;;;;5106162;27;45235;-79
2022/05/15 11:25:45;;;;;;;4.70;2.20;;;20.80;66.20;;;;;;5100014;27;45278;-80
2022/05/15 11:28:18;;;;;;;3.17;2.03;;;20.80;66.30;;;;;;5110172;27;45186;-80
2022/05/15 11:30:59;;;;;;;3.85;1.90;;;20.80;66.40;;;;;;5107264;27;47442;-80
2022/05/15 11:33:33;;;;;;;4.03;2.05;;;20.80;66.40;;;;;;5100760;27;45241;-80
2022/05/15 11:36:10;;;;;;;3.70;2.08;;;20.80;66.40;;;;;;5111325;27;45210;-80
2022/05/15 11:38:48;;;;;;;3.55;2.30;;;20.80;66.40;;;;;;5108778;27;45073;-80
2022/05/15 11:42:20;;;;;;;3.58;1.90;;;20.80;66.40;;;;;;5103997;27;46681;-80
2022/05/15 11:44:49;;;;;;;3.67;2.10;;;20.80;66.50;;;;;;5003063;28;46234;-80
2022/05/15 11:47:34;;;;;;;3.28;2.15;;;20.80;66.40;;;;;;5003955;28;45302;-80
2022/05/15 11:50:12;;;;;;;3.95;1.92;;;20.80;66.40;;;;;;5071138;27;45503;-80
2022/05/15 11:52:44;;;;;;;3.40;2.13;;;20.80;66.40;;;;;;5104761;27;47065;-80
2022/05/15 11:55:43;;;;;;;2.88;1.83;;;20.80;66.40;;;;;;5102490;27;45469;-80
2022/05/15 11:58:17;;;;;;;2.58;1.65;;;20.80;66.40;;;;;;5106511;27;45213;-80
2022/05/15 12:00:44;;;;;;;2.33;1.65;;;20.80;66.60;;;;;;5104140;27;45283;-80
2022/05/15 12:03:41;;;;;;;3.58;1.80;;;20.80;66.50;;;;;;5107474;27;47231;-80
2022/05/15 12:06:11;;;;;;;4.15;2.00;;;20.80;66.50;;;;;;5103252;27;45360;-80
2022/05/15 12:08:40;;;;;;;2.30;1.42;;;20.80;66.40;;;;;;5108775;27;45085;-80
2022/05/15 12:11:31;;;;;;;2.38;1.92;;;20.80;66.30;;;;;;5103209;27;45371;-80
2022/05/15 12:14:00;;;;;;;3.22;1.70;;;20.80;66.30;;;;;;5105257;27;47140;-80
2022/05/15 12:16:32;;;;;;;3.92;1.60;;;20.80;66.30;;;;;;5106886;27;45241;-80
2022/05/15 12:19:21;;;;;;;3.72;1.70;;;20.80;66.30;;;;;;5108364;27;45300;-79
2022/05/15 12:21:53;;;;;;;2.15;1.60;;;20.80;66.30;;;;;;5106790;27;45280;-80
2022/05/15 12:24:29;;;;;;;2.15;1.70;;;20.80;66.40;;;;;;5105201;27;47790;-80
2022/05/15 12:27:03;;;;;;;18.35;2.60;;;20.80;66.40;;;;;;5097260;27;45184;-80
2022/05/15 12:29:47;;;;;;;6.68;1.73;;;20.80;66.80;;;;;;5100550;27;45216;-79
2022/05/15 12:32:17;;;;;;;6.65;1.73;;;20.90;66.70;;;;;;5109646;27;45437;-79
2022/05/15 12:34:46;;;;;;;6.00;1.75;;;20.90;66.70;;;;;;5106203;27;45413;-80
2022/05/15 12:37:20;;;;;;;4.28;2.13;;;20.80;66.60;;;;;;5102746;27;45243;-79
2022/05/15 12:39:50;;;;;;;3.20;1.30;;;20.80;66.70;;;;;;5105507;27;45249;-80
2022/05/15 12:42:22;;;;;;;4.00;1.60;;;20.80;66.70;;;;;;5105057;27;45521;-79
2022/05/15 12:45:02;;;;;;;3.25;1.33;;;20.80;66.80;;;;;;5101319;27;45456;-80
2022/05/15 12:47:32;;;;;;;2.50;1.50;;;20.80;66.70;;;;;;5102418;27;45547;-80
2022/05/15 12:50:01;;;;;;;5.07;1.75;;;20.80;66.60;;;;;;5102988;27;45426;-80
2022/05/15 12:52:31;;;;;;;3.30;1.40;;;20.80;66.60;;;;;;5104392;27;45323;-79
2022/05/15 12:55:01;;;;;;;3.15;1.80;;;20.80;66.50;;;;;;5107751;27;46073;-79
2022/05/15 12:57:28;;;;;;;2.72;1.48;;;20.80;66.40;;;;;;5100172;27;45808;-80
2022/05/15 12:59:56;;;;;;;2.35;1.50;;;20.80;66.50;;;;;;5102219;27;45542;-79
2022/05/15 13:02:32;;;;;;;2.20;1.30;;;20.80;66.50;;;;;;5107124;27;45371;-80
2022/05/15 13:05:01;;;;;;;2.75;1.75;;;20.80;66.30;;;;;;5104809;27;45303;-79
2022/05/15 13:07:31;;;;;;;2.33;1.50;;;20.90;66.40;;;;;;5108356;27;45338;-80
2022/05/15 13:10:04;;;;;;;2.67;1.30;;;20.90;66.30;;;;;;5102010;27;45176;-80
2022/05/15 13:12:32;;;;;;;2.08;1.30;;;20.90;66.30;;;;;;5105837;27;45364;-80
2022/05/15 13:15:01;;;;;;;2.65;1.42;;;20.90;66.30;;;;;;5107418;27;48346;-79
2022/05/15 13:17:34;;;;;;;3.05;1.75;;;20.90;66.40;;;;;;5105877;27;45277;-79
2022/05/15 13:20:06;;;;;;;2.85;1.77;;;20.90;66.40;;;;;;5102792;27;45327;-79
2022/05/15 13:22:35;;;;;;;3.05;1.50;;;20.80;66.50;;;;;;5103911;27;45327;-80